createdAt,value
2017-10-17T00:00:02.543Z,0.00
2017-10-17T00:01:02.510Z,0.00
2017-10-17T00:02:02.480Z,0.00
2017-10-17T00:03:02.449Z,0.00
2017-10-17T00:04:02.411Z,0.00
2017-10-17T00:05:02.380Z,0.00
2017-10-17T00:06:02.346Z,0.00
2017-10-17T00:07:02.315Z,0.00
2017-10-17T00:08:02.283Z,0.00
2017-10-17T00:09:02.842Z,0.00
2017-10-17T00:10:02.216Z,0.00
2017-10-17T00:11:02.182Z,0.00
2017-10-17T00:12:02.155Z,0.00
2017-10-17T00:13:02.119Z,0.00
2017-10-17T00:14:02.084Z,0.00
2017-10-17T00:15:02.054Z,0.00
2017-10-17T00:16:02.019Z,0.00
2017-10-17T00:17:01.986Z,0.00
2017-10-17T00:18:01.955Z,0.00
2017-10-17T00:19:01.921Z,0.00
2017-10-17T00:20:01.887Z,0.00
2017-10-17T00:21:01.856Z,0.00
2017-10-17T00:22:01.823Z,0.00
2017-10-17T00:23:01.789Z,0.00
2017-10-17T00:24:01.755Z,0.00
2017-10-17T00:25:01.726Z,0.00
2017-10-17T00:26:01.691Z,0.00
2017-10-17T00:27:01.661Z,0.00
2017-10-17T00:28:01.624Z,0.00
2017-10-17T00:29:01.592Z,0.00
2017-10-17T00:30:01.559Z,0.00
2017-10-17T00:31:01.525Z,0.00
2017-10-17T00:32:01.494Z,0.00
2017-10-17T00:33:01.461Z,0.00
2017-10-17T00:34:01.435Z,0.00
2017-10-17T00:35:01.394Z,0.00
2017-10-17T00:36:01.360Z,0.00
2017-10-17T00:37:01.329Z,0.00
2017-10-17T00:38:01.294Z,0.00
2017-10-17T00:39:01.287Z,0.00
2017-10-17T00:40:01.231Z,0.00
2017-10-17T00:41:01.197Z,0.00
2017-10-17T00:42:01.163Z,0.00
2017-10-17T00:43:01.131Z,0.00
2017-10-17T00:44:01.098Z,0.00
2017-10-17T00:45:01.067Z,0.00
2017-10-17T00:46:01.033Z,0.00
2017-10-17T00:47:01.000Z,0.00
2017-10-17T00:48:00.967Z,0.00
2017-10-17T00:49:00.952Z,0.00
2017-10-17T00:50:00.902Z,0.00
2017-10-17T00:51:00.877Z,0.00
2017-10-17T00:52:00.836Z,0.00
2017-10-17T00:53:00.803Z,0.00
2017-10-17T00:54:00.768Z,0.00
2017-10-17T00:55:00.737Z,0.00
2017-10-17T00:56:00.706Z,0.00
2017-10-17T00:57:00.670Z,0.00
2017-10-17T00:58:00.638Z,0.00
2017-10-17T00:59:00.619Z,0.00
2017-10-17T01:00:00.573Z,0.00
2017-10-17T01:01:00.540Z,0.00
2017-10-17T01:02:00.508Z,0.00
2017-10-17T01:03:00.475Z,0.00
2017-10-17T01:04:00.442Z,0.00
2017-10-17T01:05:00.408Z,0.00
2017-10-17T01:06:00.374Z,0.00
2017-10-17T01:07:00.344Z,0.00
2017-10-17T01:08:00.312Z,0.00
2017-10-17T01:09:00.277Z,0.00
2017-10-17T01:10:00.245Z,0.00
2017-10-17T01:11:00.450Z,0.00
2017-10-17T01:12:00.178Z,0.00
2017-10-17T01:13:00.147Z,0.00
2017-10-17T01:14:00.113Z,0.00
2017-10-17T01:15:00.081Z,0.00
2017-10-17T01:16:00.050Z,0.00
2017-10-17T01:17:00.017Z,0.00
2017-10-17T01:17:59.980Z,0.00
2017-10-17T01:18:59.947Z,0.00
2017-10-17T01:19:59.916Z,0.00
2017-10-17T01:20:59.884Z,0.00
2017-10-17T01:22:00.319Z,0.00
2017-10-17T01:22:59.818Z,0.00
2017-10-17T01:23:59.787Z,0.00
2017-10-17T01:24:59.750Z,0.00
2017-10-17T01:25:59.718Z,0.00
2017-10-17T01:26:59.684Z,0.00
2017-10-17T01:27:59.669Z,0.00
2017-10-17T01:28:59.620Z,0.00
2017-10-17T01:29:59.586Z,0.00
2017-10-17T01:30:59.552Z,0.00
2017-10-17T01:31:59.522Z,0.00
2017-10-17T01:32:59.487Z,0.00
2017-10-17T01:33:59.453Z,0.00
2017-10-17T01:34:59.422Z,0.00
2017-10-17T01:35:59.389Z,0.00
2017-10-17T01:36:59.355Z,0.00
2017-10-17T01:37:59.321Z,0.00
2017-10-17T01:38:59.290Z,0.00
2017-10-17T01:39:59.256Z,0.00
2017-10-17T01:40:59.224Z,0.00
2017-10-17T01:41:59.190Z,0.00
2017-10-17T01:42:59.155Z,0.00
2017-10-17T01:43:59.122Z,0.00
2017-10-17T01:44:59.088Z,0.00
2017-10-17T01:45:59.057Z,0.00
2017-10-17T01:46:59.021Z,0.00
2017-10-17T01:47:58.990Z,0.00
2017-10-17T01:48:58.955Z,0.00
2017-10-17T01:49:58.922Z,0.00
2017-10-17T01:50:58.889Z,0.00
2017-10-17T01:51:58.856Z,0.00
2017-10-17T01:52:58.822Z,0.00
2017-10-17T01:53:58.789Z,0.00
2017-10-17T01:54:58.812Z,0.00
2017-10-17T01:55:58.721Z,0.00
2017-10-17T01:56:58.688Z,0.00
2017-10-17T01:57:58.660Z,0.00
2017-10-17T01:58:58.623Z,0.00
2017-10-17T01:59:58.589Z,0.00
2017-10-17T02:00:58.561Z,0.00
2017-10-17T02:01:58.520Z,0.00
2017-10-17T02:02:58.489Z,0.00
2017-10-17T02:03:58.456Z,0.00
2017-10-17T02:04:58.422Z,0.00
2017-10-17T02:05:58.387Z,0.00
2017-10-17T02:06:58.357Z,0.00
2017-10-17T02:07:59.121Z,0.00
2017-10-17T02:08:58.287Z,0.00
2017-10-17T02:09:58.253Z,0.00
2017-10-17T02:10:58.221Z,0.00
2017-10-17T02:11:58.186Z,0.00
2017-10-17T02:12:58.153Z,0.00
2017-10-17T02:13:58.119Z,0.00
2017-10-17T02:14:58.086Z,0.00
2017-10-17T02:15:58.054Z,0.00
2017-10-17T02:16:58.020Z,0.00
2017-10-17T02:17:57.989Z,0.00
2017-10-17T02:18:57.959Z,0.00
2017-10-17T02:19:57.921Z,0.00
2017-10-17T02:20:57.890Z,0.00
2017-10-17T02:21:57.853Z,0.00
2017-10-17T02:22:57.820Z,0.00
2017-10-17T02:23:57.787Z,0.00
2017-10-17T02:24:57.754Z,0.00
2017-10-17T02:25:57.720Z,0.00
2017-10-17T02:26:57.687Z,0.00
2017-10-17T02:27:57.654Z,0.00
2017-10-17T02:28:57.621Z,0.00
2017-10-17T02:29:57.589Z,0.00
2017-10-17T02:30:57.555Z,0.00
2017-10-17T02:31:57.521Z,0.00
2017-10-17T02:32:57.490Z,0.00
2017-10-17T02:33:57.458Z,0.00
2017-10-17T02:34:57.421Z,0.00
2017-10-17T02:35:57.389Z,0.00
2017-10-17T02:36:57.359Z,0.00
2017-10-17T02:37:57.322Z,0.00
2017-10-17T02:38:57.288Z,0.00
2017-10-17T02:39:57.256Z,0.00
2017-10-17T02:40:57.222Z,0.00
2017-10-17T02:41:57.189Z,0.00
2017-10-17T02:42:57.155Z,0.00
2017-10-17T02:43:57.125Z,0.00
2017-10-17T02:44:57.091Z,0.00
2017-10-17T02:45:57.057Z,0.00
2017-10-17T02:46:57.024Z,0.00
2017-10-17T02:47:57.245Z,0.00
2017-10-17T02:48:56.958Z,0.00
2017-10-17T02:49:56.926Z,0.00
2017-10-17T02:50:56.890Z,0.00
2017-10-17T02:51:56.859Z,0.00
2017-10-17T02:52:56.824Z,0.00
2017-10-17T02:53:56.790Z,0.00
2017-10-17T02:54:56.755Z,0.00
2017-10-17T02:55:56.725Z,0.00
2017-10-17T02:56:56.690Z,0.00
2017-10-17T02:57:56.657Z,0.00
2017-10-17T02:58:56.623Z,0.00
2017-10-17T02:59:56.588Z,0.00
2017-10-17T03:00:56.559Z,0.00
2017-10-17T03:01:56.522Z,0.00
2017-10-17T03:02:56.489Z,0.00
2017-10-17T03:03:56.457Z,0.00
2017-10-17T03:04:56.423Z,0.00
2017-10-17T03:05:56.395Z,0.00
2017-10-17T03:06:56.362Z,0.00
2017-10-17T03:07:56.322Z,0.00
2017-10-17T03:08:56.289Z,0.00
2017-10-17T03:09:56.252Z,0.00
2017-10-17T03:10:56.221Z,0.00
2017-10-17T03:11:56.304Z,0.00
2017-10-17T03:12:56.154Z,0.00
2017-10-17T03:13:56.119Z,0.00
2017-10-17T03:14:56.108Z,0.00
2017-10-17T03:15:56.054Z,0.00
2017-10-17T03:16:56.024Z,0.00
2017-10-17T03:17:55.986Z,0.00
2017-10-17T03:18:55.951Z,0.00
2017-10-17T03:19:55.920Z,0.00
2017-10-17T03:20:55.886Z,0.00
2017-10-17T03:21:55.852Z,0.00
2017-10-17T03:22:55.895Z,0.00
2017-10-17T03:23:55.785Z,0.00
2017-10-17T03:24:55.751Z,0.00
2017-10-17T03:25:55.717Z,0.00
2017-10-17T03:26:55.684Z,0.00
2017-10-17T03:27:55.651Z,0.00
2017-10-17T03:28:55.616Z,0.00
2017-10-17T03:29:55.582Z,0.00
2017-10-17T03:30:55.548Z,0.00
2017-10-17T03:31:55.515Z,0.00
2017-10-17T03:32:55.482Z,0.00
2017-10-17T03:33:55.448Z,0.00
2017-10-17T03:34:55.417Z,0.00
2017-10-17T03:35:55.381Z,0.00
2017-10-17T03:36:55.348Z,0.00
2017-10-17T03:37:55.310Z,0.00
2017-10-17T03:38:55.281Z,0.00
2017-10-17T03:39:55.248Z,0.00
2017-10-17T03:40:55.213Z,0.00
2017-10-17T03:41:55.178Z,0.00
2017-10-17T03:42:55.145Z,0.00
2017-10-17T03:43:55.111Z,0.00
2017-10-17T03:44:55.078Z,0.00
2017-10-17T03:45:55.043Z,0.00
2017-10-17T03:46:55.010Z,0.00
2017-10-17T03:47:54.977Z,0.00
2017-10-17T03:48:54.942Z,0.00
2017-10-17T03:49:54.930Z,0.00
2017-10-17T03:50:54.877Z,0.00
2017-10-17T03:51:54.840Z,0.00
2017-10-17T03:52:54.816Z,0.00
2017-10-17T03:53:54.775Z,0.00
2017-10-17T03:54:54.740Z,0.00
2017-10-17T03:55:54.707Z,0.00
2017-10-17T03:56:55.066Z,0.00
2017-10-17T03:57:54.638Z,0.00
2017-10-17T03:58:54.606Z,0.00
2017-10-17T03:59:54.573Z,0.00
2017-10-17T04:00:54.540Z,0.00
2017-10-17T04:01:54.505Z,0.00
2017-10-17T04:02:54.470Z,0.00
2017-10-17T04:03:54.437Z,0.00
2017-10-17T04:04:54.403Z,0.00
2017-10-17T04:05:54.370Z,0.00
2017-10-17T04:06:54.339Z,0.00
2017-10-17T04:07:54.300Z,0.00
2017-10-17T04:08:54.268Z,0.00
2017-10-17T04:09:54.233Z,0.00
2017-10-17T04:10:54.200Z,0.00
2017-10-17T04:11:54.167Z,0.00
2017-10-17T04:12:54.135Z,0.00
2017-10-17T04:13:54.098Z,0.00
2017-10-17T04:14:54.063Z,0.00
2017-10-17T04:15:54.031Z,0.00
2017-10-17T04:16:53.997Z,0.00
2017-10-17T04:17:53.963Z,0.00
2017-10-17T04:18:53.929Z,0.00
2017-10-17T04:19:53.893Z,0.00
2017-10-17T04:20:53.860Z,0.00
2017-10-17T04:21:53.826Z,0.00
2017-10-17T04:22:53.792Z,0.00
2017-10-17T04:23:54.308Z,0.00
2017-10-17T04:24:53.724Z,0.00
2017-10-17T04:25:53.690Z,0.00
2017-10-17T04:26:53.657Z,0.00
2017-10-17T04:27:53.621Z,0.00
2017-10-17T04:28:53.589Z,0.00
2017-10-17T04:29:53.552Z,0.00
2017-10-17T04:30:53.518Z,0.00
2017-10-17T04:31:53.483Z,0.00
2017-10-17T04:32:53.451Z,0.00
2017-10-17T04:33:53.416Z,0.00
2017-10-17T04:34:53.382Z,0.00
2017-10-17T04:35:53.349Z,0.00
2017-10-17T04:36:53.318Z,0.00
2017-10-17T04:37:53.279Z,0.00
2017-10-17T04:38:53.243Z,0.00
2017-10-17T04:39:53.209Z,0.00
2017-10-17T04:40:53.177Z,0.00
2017-10-17T04:41:53.141Z,0.00
2017-10-17T04:42:53.107Z,0.00
2017-10-17T04:43:53.073Z,0.00
2017-10-17T04:44:53.040Z,0.00
2017-10-17T04:45:53.005Z,0.00
2017-10-17T04:46:52.978Z,0.00
2017-10-17T04:47:52.939Z,0.00
2017-10-17T04:48:52.909Z,0.00
2017-10-17T04:49:52.868Z,0.00
2017-10-17T04:50:52.837Z,0.00
2017-10-17T04:51:52.800Z,0.00
2017-10-17T04:52:52.766Z,0.00
2017-10-17T04:53:52.733Z,0.00
2017-10-17T04:54:52.695Z,0.00
2017-10-17T04:55:52.682Z,0.00
2017-10-17T04:56:52.628Z,0.00
2017-10-17T04:57:52.596Z,0.00
2017-10-17T04:58:52.563Z,0.00
2017-10-17T04:59:52.530Z,0.00
2017-10-17T05:00:52.494Z,0.00
2017-10-17T05:01:52.460Z,0.00
2017-10-17T05:02:52.427Z,0.00
2017-10-17T05:03:52.396Z,0.00
2017-10-17T05:04:52.358Z,0.00
2017-10-17T05:05:52.324Z,0.00
2017-10-17T05:06:52.290Z,0.00
2017-10-17T05:07:52.256Z,0.00
2017-10-17T05:08:52.223Z,0.00
2017-10-17T05:09:52.187Z,0.00
2017-10-17T05:10:52.155Z,0.00
2017-10-17T05:11:52.123Z,0.00
2017-10-17T05:12:52.088Z,0.00
2017-10-17T05:13:52.053Z,0.00
2017-10-17T05:14:52.018Z,0.00
2017-10-17T05:15:51.986Z,0.00
2017-10-17T05:16:51.955Z,0.00
2017-10-17T05:17:51.916Z,0.00
2017-10-17T05:18:51.883Z,0.00
2017-10-17T05:19:51.850Z,0.00
2017-10-17T05:20:51.817Z,0.00
2017-10-17T05:21:51.782Z,0.00
2017-10-17T05:22:51.747Z,0.00
2017-10-17T05:23:51.715Z,0.00
2017-10-17T05:24:51.680Z,0.00
2017-10-17T05:25:51.648Z,0.00
2017-10-17T05:26:51.613Z,0.00
2017-10-17T05:27:51.579Z,0.00
2017-10-17T05:28:51.546Z,0.00
2017-10-17T05:29:51.511Z,0.00
2017-10-17T05:30:51.477Z,0.00
2017-10-17T05:31:51.443Z,0.00
2017-10-17T05:32:51.414Z,0.00
2017-10-17T05:33:51.374Z,0.00
2017-10-17T05:34:51.341Z,0.00
2017-10-17T05:35:51.309Z,0.00
2017-10-17T05:36:51.272Z,0.00
2017-10-17T05:37:51.240Z,0.00
2017-10-17T05:38:51.206Z,0.00
2017-10-17T05:39:51.171Z,0.00
2017-10-17T05:40:51.138Z,0.00
2017-10-17T05:41:51.103Z,0.00
2017-10-17T05:42:51.070Z,0.00
2017-10-17T05:43:51.032Z,0.00
2017-10-17T05:44:51.001Z,0.00
2017-10-17T05:45:50.966Z,0.00
2017-10-17T05:46:50.932Z,0.00
2017-10-17T05:47:50.899Z,0.00
2017-10-17T05:48:50.865Z,0.00
2017-10-17T05:49:50.827Z,0.00
2017-10-17T05:50:50.834Z,0.00
2017-10-17T05:51:50.762Z,0.00
2017-10-17T05:52:50.727Z,0.00
2017-10-17T05:53:50.693Z,0.00
2017-10-17T05:54:50.660Z,0.00
2017-10-17T05:55:50.629Z,0.00
2017-10-17T05:56:50.591Z,0.00
2017-10-17T05:57:50.554Z,0.00
2017-10-17T05:58:50.520Z,0.00
2017-10-17T05:59:50.488Z,0.00
2017-10-17T06:00:50.455Z,0.00
2017-10-17T06:01:50.419Z,0.00
2017-10-17T06:02:50.384Z,0.00
2017-10-17T06:03:50.351Z,0.00
2017-10-17T06:04:50.317Z,0.00
2017-10-17T06:05:50.282Z,0.00
2017-10-17T06:06:50.248Z,0.00
2017-10-17T06:07:50.213Z,0.00
2017-10-17T06:08:50.180Z,0.00
2017-10-17T06:09:50.145Z,0.00
2017-10-17T06:10:50.111Z,5.63
2017-10-17T06:11:50.079Z,5.63
2017-10-17T06:12:50.042Z,5.63
2017-10-17T06:13:50.012Z,5.63
2017-10-17T06:14:49.974Z,5.63
2017-10-17T06:15:49.940Z,5.63
2017-10-17T06:16:49.994Z,5.63
2017-10-17T06:17:49.870Z,5.63
2017-10-17T06:18:49.837Z,5.63
2017-10-17T06:19:49.803Z,5.63
2017-10-17T06:20:49.768Z,5.63
2017-10-17T06:21:49.734Z,5.63
2017-10-17T06:22:49.707Z,5.63
2017-10-17T06:23:49.881Z,5.63
2017-10-17T06:24:49.627Z,5.63
2017-10-17T06:25:49.596Z,5.63
2017-10-17T06:26:49.559Z,5.63
2017-10-17T06:27:49.529Z,5.63
2017-10-17T06:28:49.494Z,5.63
2017-10-17T06:29:49.459Z,5.63
2017-10-17T06:30:49.425Z,5.63
2017-10-17T06:31:49.394Z,5.63
2017-10-17T06:32:49.359Z,5.63
2017-10-17T06:33:49.323Z,5.63
2017-10-17T06:34:49.290Z,11.25
2017-10-17T06:35:49.254Z,11.25
2017-10-17T06:36:49.222Z,11.25
2017-10-17T06:37:49.179Z,11.25
2017-10-17T06:38:49.150Z,11.25
2017-10-17T06:39:49.118Z,11.25
2017-10-17T06:40:49.085Z,11.25
2017-10-17T06:41:49.050Z,11.25
2017-10-17T06:42:49.014Z,11.25
2017-10-17T06:43:48.982Z,16.88
2017-10-17T06:44:48.949Z,16.88
2017-10-17T06:45:48.913Z,16.88
2017-10-17T06:46:48.881Z,16.88
2017-10-17T06:47:48.849Z,16.88
2017-10-17T06:48:48.819Z,22.50
2017-10-17T06:49:48.781Z,22.50
2017-10-17T06:50:48.746Z,22.50
2017-10-17T06:51:48.712Z,22.50
2017-10-17T06:52:48.679Z,22.50
2017-10-17T06:53:48.645Z,22.50
2017-10-17T06:54:48.612Z,22.50
2017-10-17T06:55:48.582Z,22.50
2017-10-17T06:56:48.548Z,22.50
2017-10-17T06:57:48.510Z,22.50
2017-10-17T06:58:48.476Z,22.50
2017-10-17T06:59:48.443Z,22.50
2017-10-17T07:00:48.421Z,22.50
2017-10-17T07:01:48.376Z,22.50
2017-10-17T07:02:48.343Z,16.88
2017-10-17T07:03:48.310Z,22.50
2017-10-17T07:04:48.277Z,22.50
2017-10-17T07:05:48.243Z,22.50
2017-10-17T07:06:48.210Z,22.50
2017-10-17T07:07:48.177Z,22.50
2017-10-17T07:08:48.144Z,22.50
2017-10-17T07:09:48.250Z,22.50
2017-10-17T07:10:48.077Z,22.50
2017-10-17T07:11:48.043Z,22.50
2017-10-17T07:12:48.011Z,22.50
2017-10-17T07:13:47.978Z,28.13
2017-10-17T07:14:47.943Z,28.13
2017-10-17T07:15:47.910Z,28.13
2017-10-17T07:16:47.877Z,28.13
2017-10-17T07:17:47.842Z,28.13
2017-10-17T07:18:47.810Z,28.13
2017-10-17T07:19:47.778Z,28.13
2017-10-17T07:20:47.748Z,33.75
2017-10-17T07:21:47.712Z,33.75
2017-10-17T07:22:47.679Z,39.38
2017-10-17T07:23:47.644Z,39.38
2017-10-17T07:24:47.612Z,39.38
2017-10-17T07:25:47.578Z,45.00
2017-10-17T07:26:47.545Z,45.00
2017-10-17T07:27:47.512Z,45.00
2017-10-17T07:28:47.480Z,45.00
2017-10-17T07:29:47.448Z,45.00
2017-10-17T07:30:47.413Z,45.00
2017-10-17T07:31:47.380Z,45.00
2017-10-17T07:32:47.351Z,45.00
2017-10-17T07:33:47.312Z,45.00
2017-10-17T07:34:47.280Z,45.00
2017-10-17T07:35:47.251Z,45.00
2017-10-17T07:36:47.224Z,45.00
2017-10-17T07:37:47.181Z,45.00
2017-10-17T07:38:47.147Z,45.00
2017-10-17T07:39:47.115Z,45.00
2017-10-17T07:40:47.082Z,50.63
2017-10-17T07:41:47.048Z,50.63
2017-10-17T07:42:47.015Z,50.63
2017-10-17T07:43:46.983Z,56.25
2017-10-17T07:44:46.950Z,56.25
2017-10-17T07:45:46.917Z,56.25
2017-10-17T07:46:46.887Z,56.25
2017-10-17T07:47:46.852Z,61.88
2017-10-17T07:48:46.819Z,61.88
2017-10-17T07:49:46.786Z,67.50
2017-10-17T07:50:46.755Z,67.50
2017-10-17T07:51:46.722Z,73.13
2017-10-17T07:52:46.689Z,73.13
2017-10-17T07:53:46.656Z,73.13
2017-10-17T07:54:46.625Z,73.13
2017-10-17T07:55:46.591Z,73.13
2017-10-17T07:56:46.559Z,73.13
2017-10-17T07:57:46.526Z,73.13
2017-10-17T07:58:46.493Z,78.75
2017-10-17T07:59:46.459Z,78.75
2017-10-17T08:00:46.429Z,78.75
2017-10-17T08:01:46.397Z,84.38
2017-10-17T08:02:46.371Z,84.38
2017-10-17T08:03:46.332Z,90.00
2017-10-17T08:04:46.831Z,95.63
2017-10-17T08:05:46.266Z,101.25
2017-10-17T08:06:46.234Z,106.88
2017-10-17T08:07:46.202Z,101.25
2017-10-17T08:08:46.192Z,101.25
2017-10-17T08:09:46.138Z,101.25
2017-10-17T08:10:46.107Z,106.88
2017-10-17T08:11:46.074Z,118.13
2017-10-17T08:12:46.045Z,118.13
2017-10-17T08:13:46.010Z,123.75
2017-10-17T08:14:45.978Z,123.75
2017-10-17T08:15:45.946Z,123.75
2017-10-17T08:16:45.913Z,129.38
2017-10-17T08:17:45.881Z,140.63
2017-10-17T08:18:45.850Z,140.63
2017-10-17T08:19:45.818Z,151.88
2017-10-17T08:20:45.790Z,151.88
2017-10-17T08:21:45.757Z,151.88
2017-10-17T08:22:45.727Z,157.50
2017-10-17T08:23:45.842Z,163.13
2017-10-17T08:24:45.666Z,163.13
2017-10-17T08:25:45.631Z,168.75
2017-10-17T08:26:45.607Z,168.75
2017-10-17T08:27:45.572Z,174.38
2017-10-17T08:28:45.541Z,168.75
2017-10-17T08:29:45.510Z,168.75
2017-10-17T08:30:45.483Z,163.13
2017-10-17T08:31:45.450Z,168.75
2017-10-17T08:32:45.420Z,168.75
2017-10-17T08:33:45.388Z,168.75
2017-10-17T08:34:45.358Z,174.38
2017-10-17T08:35:45.328Z,174.38
2017-10-17T08:36:45.299Z,174.38
2017-10-17T08:37:45.267Z,168.75
2017-10-17T08:38:45.237Z,168.75
2017-10-17T08:39:45.208Z,168.75
2017-10-17T08:40:45.177Z,163.13
2017-10-17T08:41:45.147Z,168.75
2017-10-17T08:42:45.118Z,168.75
2017-10-17T08:43:45.090Z,168.75
2017-10-17T08:44:45.059Z,168.75
2017-10-17T08:45:45.031Z,168.75
2017-10-17T08:46:45.000Z,168.75
2017-10-17T08:47:44.971Z,168.75
2017-10-17T08:48:44.943Z,174.38
2017-10-17T08:49:44.910Z,174.38
2017-10-17T08:50:44.881Z,174.38
2017-10-17T08:51:44.854Z,180.00
2017-10-17T08:52:44.826Z,180.00
2017-10-17T08:53:44.795Z,180.00
2017-10-17T08:54:44.767Z,185.63
2017-10-17T08:55:44.736Z,191.25
2017-10-17T08:56:44.708Z,191.25
2017-10-17T08:57:44.673Z,196.88
2017-10-17T08:58:44.651Z,196.88
2017-10-17T08:59:44.624Z,202.50
2017-10-17T09:00:44.592Z,213.75
2017-10-17T09:01:44.563Z,219.38
2017-10-17T09:02:44.534Z,219.38
2017-10-17T09:03:44.509Z,230.63
2017-10-17T09:04:44.481Z,225.00
2017-10-17T09:05:44.448Z,236.25
2017-10-17T09:06:44.422Z,241.88
2017-10-17T09:07:44.394Z,236.25
2017-10-17T09:08:44.366Z,241.88
2017-10-17T09:09:44.344Z,241.88
2017-10-17T09:10:44.307Z,247.50
2017-10-17T09:11:44.281Z,247.50
2017-10-17T09:12:44.252Z,253.13
2017-10-17T09:13:44.222Z,258.75
2017-10-17T09:14:44.194Z,264.38
2017-10-17T09:15:44.168Z,275.63
2017-10-17T09:16:44.140Z,281.25
2017-10-17T09:17:44.114Z,286.88
2017-10-17T09:18:44.084Z,298.13
2017-10-17T09:19:44.058Z,292.50
2017-10-17T09:20:44.029Z,298.13
2017-10-17T09:21:44.002Z,303.75
2017-10-17T09:22:43.973Z,309.38
2017-10-17T09:23:43.951Z,315.00
2017-10-17T09:24:43.921Z,320.63
2017-10-17T09:25:43.893Z,315.00
2017-10-17T09:26:43.865Z,326.25
2017-10-17T09:27:43.839Z,320.63
2017-10-17T09:28:43.812Z,326.25
2017-10-17T09:29:43.784Z,343.13
2017-10-17T09:30:43.756Z,348.75
2017-10-17T09:31:43.731Z,348.75
2017-10-17T09:32:43.704Z,354.38
2017-10-17T09:33:43.678Z,360.00
2017-10-17T09:34:43.651Z,365.63
2017-10-17T09:35:43.624Z,365.63
2017-10-17T09:36:43.597Z,365.63
2017-10-17T09:37:43.584Z,371.25
2017-10-17T09:38:43.545Z,393.75
2017-10-17T09:39:43.524Z,405.00
2017-10-17T09:40:43.493Z,405.00
2017-10-17T09:41:43.472Z,405.00
2017-10-17T09:42:43.441Z,405.00
2017-10-17T09:43:43.416Z,410.63
2017-10-17T09:44:43.392Z,410.63
2017-10-17T09:45:43.364Z,410.63
2017-10-17T09:46:43.338Z,410.63
2017-10-17T09:47:43.315Z,410.63
2017-10-17T09:48:43.289Z,405.00
2017-10-17T09:49:43.389Z,410.63
2017-10-17T09:50:43.237Z,416.25
2017-10-17T09:51:43.211Z,444.38
2017-10-17T09:52:43.187Z,427.50
2017-10-17T09:53:43.166Z,433.13
2017-10-17T09:54:43.135Z,433.13
2017-10-17T09:55:43.112Z,433.13
2017-10-17T09:56:43.084Z,450.00
2017-10-17T09:57:43.057Z,421.88
2017-10-17T09:58:43.032Z,444.38
2017-10-17T09:59:43.010Z,472.50
2017-10-17T10:00:42.987Z,472.50
2017-10-17T10:01:42.959Z,438.75
2017-10-17T10:02:42.939Z,433.13
2017-10-17T10:03:42.909Z,433.13
2017-10-17T10:04:42.883Z,427.50
2017-10-17T10:05:42.858Z,427.50
2017-10-17T10:06:42.834Z,410.63
2017-10-17T10:07:42.810Z,388.13
2017-10-17T10:08:42.785Z,399.38
2017-10-17T10:09:42.758Z,405.00
2017-10-17T10:10:42.733Z,416.25
2017-10-17T10:11:42.708Z,421.88
2017-10-17T10:12:42.686Z,444.38
2017-10-17T10:13:42.660Z,450.00
2017-10-17T10:14:42.635Z,466.88
2017-10-17T10:15:42.614Z,483.75
2017-10-17T10:16:42.584Z,495.00
2017-10-17T10:17:42.565Z,483.75
2017-10-17T10:18:42.536Z,495.00
2017-10-17T10:19:42.510Z,517.50
2017-10-17T10:20:42.493Z,511.88
2017-10-17T10:21:42.460Z,523.13
2017-10-17T10:22:42.436Z,540.00
2017-10-17T10:23:42.412Z,551.25
2017-10-17T10:24:42.387Z,517.50
2017-10-17T10:25:42.362Z,523.13
2017-10-17T10:26:42.337Z,517.50
2017-10-17T10:27:42.312Z,517.50
2017-10-17T10:28:42.290Z,506.25
2017-10-17T10:29:42.266Z,495.00
2017-10-17T10:30:42.241Z,517.50
2017-10-17T10:31:42.222Z,478.13
2017-10-17T10:32:42.192Z,433.13
2017-10-17T10:33:42.166Z,410.63
2017-10-17T10:34:42.145Z,416.25
2017-10-17T10:35:42.117Z,410.63
2017-10-17T10:36:42.096Z,416.25
2017-10-17T10:37:42.072Z,421.88
2017-10-17T10:38:42.047Z,433.13
2017-10-17T10:39:42.025Z,433.13
2017-10-17T10:40:42.000Z,433.13
2017-10-17T10:41:41.976Z,438.75
2017-10-17T10:42:41.953Z,433.13
2017-10-17T10:43:41.927Z,433.13
2017-10-17T10:44:42.447Z,433.13
2017-10-17T10:45:41.882Z,433.13
2017-10-17T10:46:41.860Z,433.13
2017-10-17T10:47:41.835Z,433.13
2017-10-17T10:48:41.812Z,433.13
2017-10-17T10:49:41.785Z,444.38
2017-10-17T10:50:41.766Z,438.75
2017-10-17T10:51:41.742Z,444.38
2017-10-17T10:52:41.717Z,450.00
2017-10-17T10:53:41.692Z,472.50
2017-10-17T10:54:41.672Z,545.63
2017-10-17T10:55:41.646Z,573.75
2017-10-17T10:56:41.638Z,573.75
2017-10-17T10:57:41.598Z,573.75
2017-10-17T10:58:41.577Z,573.75
2017-10-17T10:59:41.554Z,573.75
2017-10-17T11:00:41.671Z,590.63
2017-10-17T11:01:41.504Z,596.25
2017-10-17T11:02:41.483Z,590.63
2017-10-17T11:03:41.463Z,607.50
2017-10-17T11:04:41.439Z,618.75
2017-10-17T11:05:41.413Z,607.50
2017-10-17T11:06:41.391Z,613.13
2017-10-17T11:07:41.371Z,641.25
2017-10-17T11:08:41.343Z,652.50
2017-10-17T11:09:41.319Z,635.63
2017-10-17T11:10:41.296Z,669.38
2017-10-17T11:11:41.272Z,641.25
2017-10-17T11:12:41.250Z,703.13
2017-10-17T11:13:41.228Z,686.25
2017-10-17T11:14:41.202Z,675.00
2017-10-17T11:15:41.181Z,663.75
2017-10-17T11:16:41.158Z,669.38
2017-10-17T11:17:41.137Z,680.63
2017-10-17T11:18:41.112Z,691.88
2017-10-17T11:19:41.091Z,680.63
2017-10-17T11:20:41.065Z,686.25
2017-10-17T11:21:41.044Z,680.63
2017-10-17T11:22:41.014Z,652.50
2017-10-17T11:23:40.997Z,686.25
2017-10-17T11:24:41.261Z,680.63
2017-10-17T11:25:41.261Z,680.63
2017-10-17T11:26:40.934Z,703.13
2017-10-17T11:27:40.935Z,680.63
2017-10-17T11:28:40.886Z,686.25
2017-10-17T11:29:40.863Z,714.38
2017-10-17T11:30:40.841Z,691.88
2017-10-17T11:31:40.820Z,675.00
2017-10-17T11:32:40.796Z,697.50
2017-10-17T11:33:40.773Z,714.38
2017-10-17T11:34:40.753Z,686.25
2017-10-17T11:35:40.924Z,703.13
2017-10-17T11:36:40.709Z,596.25
2017-10-17T11:37:40.686Z,517.50
2017-10-17T11:38:40.664Z,506.25
2017-10-17T11:39:40.642Z,500.63
2017-10-17T11:40:40.621Z,500.63
2017-10-17T11:41:40.594Z,500.63
2017-10-17T11:42:40.676Z,495.00
2017-10-17T11:43:40.562Z,495.00
2017-10-17T11:44:40.534Z,489.38
2017-10-17T11:45:40.513Z,483.75
2017-10-17T11:46:40.490Z,483.75
2017-10-17T11:47:40.470Z,483.75
2017-10-17T11:48:40.448Z,483.75
2017-10-17T11:49:40.427Z,483.75
2017-10-17T11:50:40.403Z,483.75
2017-10-17T11:51:40.391Z,500.63
2017-10-17T11:52:40.359Z,573.75
2017-10-17T11:53:40.339Z,624.38
2017-10-17T11:54:40.317Z,534.38
2017-10-17T11:55:40.295Z,495.00
2017-10-17T11:56:40.276Z,495.00
2017-10-17T11:57:40.253Z,500.63
2017-10-17T11:58:40.243Z,495.00
2017-10-17T11:59:40.211Z,489.38
2017-10-17T12:00:40.188Z,545.63
2017-10-17T12:01:40.166Z,618.75
2017-10-17T12:02:40.146Z,624.38
2017-10-17T12:03:41.024Z,630.00
2017-10-17T12:04:40.100Z,613.13
2017-10-17T12:05:40.079Z,613.13
2017-10-17T12:06:40.057Z,607.50
2017-10-17T12:07:40.036Z,618.75
2017-10-17T12:08:40.015Z,601.88
2017-10-17T12:09:39.992Z,613.13
2017-10-17T12:10:39.973Z,624.38
2017-10-17T12:11:39.956Z,579.38
2017-10-17T12:12:39.929Z,551.25
2017-10-17T12:13:39.906Z,568.13
2017-10-17T12:14:39.883Z,556.88
2017-10-17T12:15:39.867Z,528.75
2017-10-17T12:16:39.840Z,427.50
2017-10-17T12:17:39.819Z,388.13
2017-10-17T12:18:39.797Z,382.50
2017-10-17T12:19:39.774Z,382.50
2017-10-17T12:20:39.753Z,376.88
2017-10-17T12:21:39.729Z,376.88
2017-10-17T12:22:39.707Z,371.25
2017-10-17T12:23:39.684Z,371.25
2017-10-17T12:24:39.662Z,365.63
2017-10-17T12:25:39.636Z,365.63
2017-10-17T12:26:39.613Z,365.63
2017-10-17T12:27:39.591Z,371.25
2017-10-17T12:28:39.569Z,450.00
2017-10-17T12:29:39.548Z,523.13
2017-10-17T12:30:39.520Z,511.88
2017-10-17T12:31:39.498Z,511.88
2017-10-17T12:32:39.475Z,500.63
2017-10-17T12:33:39.451Z,455.63
2017-10-17T12:34:39.428Z,421.88
2017-10-17T12:35:39.406Z,376.88
2017-10-17T12:36:39.380Z,360.00
2017-10-17T12:37:39.358Z,354.38
2017-10-17T12:38:39.335Z,360.00
2017-10-17T12:39:39.312Z,354.38
2017-10-17T12:40:39.289Z,360.00
2017-10-17T12:41:39.266Z,365.63
2017-10-17T12:42:39.243Z,371.25
2017-10-17T12:43:39.219Z,382.50
2017-10-17T12:44:39.197Z,410.63
2017-10-17T12:45:39.172Z,433.13
2017-10-17T12:46:39.150Z,433.13
2017-10-17T12:47:39.127Z,427.50
2017-10-17T12:48:39.103Z,421.88
2017-10-17T12:49:39.080Z,427.50
2017-10-17T12:50:39.056Z,421.88
2017-10-17T12:51:39.034Z,399.38
2017-10-17T12:52:39.012Z,365.63
2017-10-17T12:53:38.988Z,337.50
2017-10-17T12:54:38.964Z,320.63
2017-10-17T12:55:38.951Z,326.25